Tangent, Oregon
Current Conditions -  °F | °C
As of 8:15 PM on Tuesday 27 Jan 2015 (Local Time) from KCVO Reporting Station
Overcast Overcast  
Wind Chill: 52°   Ceiling: 3100
Heat Index: 52°   Visibility: 1.5mi
Dew Point: 48°   Wind: 0mph
Humidity: 88%   Direction: NA
Pressure: 30.24"   Gusts: NA
Location:  44.54°N, 123.11°W
Report Text: KCVO 280415Z AUTO 00000KT 1 1/2SM OVC031 11/09 A3024 RMK AO1
Loading
Personal Weather Stations






























Interactive Weather Map New forecast layout! Learn more

10-Day Weather Forecast

Advertisements
Track Severe Weather on mobile